sensor_id;sensor_type;location;lat;lon;timestamp;temperature;humidity
11284;DHT22;5698;47.332;11.180;2024-01-11T00:01:38;-4.20;99.90
11284;DHT22;5698;47.332;11.180;2024-01-11T00:04:05;-4.10;99.90
11284;DHT22;5698;47.332;11.180;2024-01-11T00:06:32;-4.20;99.90
11284;DHT22;5698;47.332;11.180;2024-01-11T00:08:59;-4.20;99.90
11284;DHT22;5698;47.332;11.180;2024-01-11T00:11:26;-4.20;99.90
11284;DHT22;5698;47.332;11.180;2024-01-11T00:13:53;-4.10;99.90
11284;DHT22;5698;47.332;11.180;2024-01-11T00:16:20;-4.20;99.90
11284;DHT22;5698;47.332;11.180;2024-01-11T00:18:48;-4.20;99.90
11284;DHT22;5698;47.332;11.180;2024-01-11T00:21:15;-4.20;99.90
11284;DHT22;5698;47.332;11.180;2024-01-11T00:23:42;-4.30;99.90
11284;DHT22;5698;47.332;11.180;2024-01-11T00:26:12;-4.30;99.90
11284;DHT22;5698;47.332;11.180;2024-01-11T00:28:39;-4.30;99.90
11284;DHT22;5698;47.332;11.180;2024-01-11T00:31:05;-4.30;99.90
11284;DHT22;5698;47.332;11.180;2024-01-11T00:33:32;-4.30;99.90
11284;DHT22;5698;47.332;11.180;2024-01-11T00:36:01;-4.30;99.90
11284;DHT22;5698;47.332;11.180;2024-01-11T00:38:28;-4.30;99.90
11284;DHT22;5698;47.332;11.180;2024-01-11T00:40:54;-4.30;99.90
11284;DHT22;5698;47.332;11.180;2024-01-11T00:43:21;-4.30;99.90
11284;DHT22;5698;47.332;11.180;2024-01-11T00:45:48;-4.30;99.90
11284;DHT22;5698;47.332;11.180;2024-01-11T00:48:15;-4.30;99.90
11284;DHT22;5698;47.332;11.180;2024-01-11T00:50:42;-4.30;99.90
11284;DHT22;5698;47.332;11.180;2024-01-11T00:53:10;-4.40;99.90
11284;DHT22;5698;47.332;11.180;2024-01-11T00:55:40;-4.40;99.90
11284;DHT22;5698;47.332;11.180;2024-01-11T00:58:06;-4.40;99.90
11284;DHT22;5698;47.332;11.180;2024-01-11T01:00:33;-4.40;99.90
11284;DHT22;5698;47.332;11.180;2024-01-11T01:03:00;-4.40;99.90
11284;DHT22;5698;47.332;11.180;2024-01-11T01:05:27;-4.40;99.90
11284;DHT22;5698;47.332;11.180;2024-01-11T01:07:54;-4.30;99.90
11284;DHT22;5698;47.332;11.180;2024-01-11T01:10:22;-4.50;99.90
11284;DHT22;5698;47.332;11.180;2024-01-11T01:12:49;-4.40;99.90
11284;DHT22;5698;47.332;11.180;2024-01-11T01:15:16;-4.50;99.90
11284;DHT22;5698;47.332;11.180;2024-01-11T01:17:43;-4.50;99.90
11284;DHT22;5698;47.332;11.180;2024-01-11T01:20:11;-4.50;99.90
11284;DHT22;5698;47.332;11.180;2024-01-11T01:22:37;-4.50;99.90
11284;DHT22;5698;47.332;11.180;2024-01-11T01:25:05;-4.50;99.90
11284;DHT22;5698;47.332;11.180;2024-01-11T01:27:33;-4.60;99.90
11284;DHT22;5698;47.332;11.180;2024-01-11T01:30:00;-4.60;99.90
11284;DHT22;5698;47.332;11.180;2024-01-11T01:32:27;-4.60;99.90
11284;DHT22;5698;47.332;11.180;2024-01-11T01:34:54;-4.60;99.90
11284;DHT22;5698;47.332;11.180;2024-01-11T01:37:21;-4.50;99.90
11284;DHT22;5698;47.332;11.180;2024-01-11T01:39:48;-4.60;99.90
11284;DHT22;5698;47.332;11.180;2024-01-11T01:42:15;-4.60;99.90
11284;DHT22;5698;47.332;11.180;2024-01-11T01:44:43;-4.50;99.90
11284;DHT22;5698;47.332;11.180;2024-01-11T01:47:10;-4.50;99.90
11284;DHT22;5698;47.332;11.180;2024-01-11T01:49:38;-4.40;99.90
11284;DHT22;5698;47.332;11.180;2024-01-11T01:52:06;-4.50;99.90
11284;DHT22;5698;47.332;11.180;2024-01-11T01:54:33;-4.50;99.90
11284;DHT22;5698;47.332;11.180;2024-01-11T01:57:00;-4.50;99.90
11284;DHT22;5698;47.332;11.180;2024-01-11T01:59:29;-4.50;99.90
11284;DHT22;5698;47.332;11.180;2024-01-11T02:01:58;-4.40;99.90
11284;DHT22;5698;47.332;11.180;2024-01-11T02:04:26;-4.40;99.90
11284;DHT22;5698;47.332;11.180;2024-01-11T02:06:54;-4.40;99.90
11284;DHT22;5698;47.332;11.180;2024-01-11T02:09:22;-4.40;99.90
11284;DHT22;5698;47.332;11.180;2024-01-11T02:11:52;-4.50;99.90
11284;DHT22;5698;47.332;11.180;2024-01-11T02:14:19;-4.50;99.90
11284;DHT22;5698;47.332;11.180;2024-01-11T02:16:46;-4.50;99.90
11284;DHT22;5698;47.332;11.180;2024-01-11T02:19:17;-4.50;99.90
11284;DHT22;5698;47.332;11.180;2024-01-11T02:21:47;-4.60;99.90
11284;DHT22;5698;47.332;11.180;2024-01-11T02:24:16;-4.60;99.90
11284;DHT22;5698;47.332;11.180;2024-01-11T02:26:58;-4.70;99.90
11284;DHT22;5698;47.332;11.180;2024-01-11T02:29:26;-4.60;99.90
11284;DHT22;5698;47.332;11.180;2024-01-11T02:31:53;-4.60;99.90
11284;DHT22;5698;47.332;11.180;2024-01-11T02:34:21;-4.70;99.90
11284;DHT22;5698;47.332;11.180;2024-01-11T02:36:48;-4.70;99.90
11284;DHT22;5698;47.332;11.180;2024-01-11T02:39:18;-4.80;99.90
11284;DHT22;5698;47.332;11.180;2024-01-11T02:41:46;-4.60;99.90
11284;DHT22;5698;47.332;11.180;2024-01-11T02:44:14;-4.80;99.90
11284;DHT22;5698;47.332;11.180;2024-01-11T02:46:41;-4.80;99.90
11284;DHT22;5698;47.332;11.180;2024-01-11T02:49:08;-4.80;99.90
11284;DHT22;5698;47.332;11.180;2024-01-11T02:51:35;-4.80;99.90
11284;DHT22;5698;47.332;11.180;2024-01-11T02:54:02;-4.80;99.90
11284;DHT22;5698;47.332;11.180;2024-01-11T02:56:31;-4.70;99.90
11284;DHT22;5698;47.332;11.180;2024-01-11T02:58:57;-4.70;99.90
11284;DHT22;5698;47.332;11.180;2024-01-11T03:01:24;-4.70;99.90
11284;DHT22;5698;47.332;11.180;2024-01-11T03:03:51;-4.70;99.90
11284;DHT22;5698;47.332;11.180;2024-01-11T03:06:18;-4.70;99.90
11284;DHT22;5698;47.332;11.180;2024-01-11T03:08:47;-4.80;99.90
11284;DHT22;5698;47.332;11.180;2024-01-11T03:11:14;-4.70;99.90
11284;DHT22;5698;47.332;11.180;2024-01-11T03:13:43;-4.80;99.90
11284;DHT22;5698;47.332;11.180;2024-01-11T03:16:10;-4.80;99.90
11284;DHT22;5698;47.332;11.180;2024-01-11T03:18:37;-4.80;99.90
11284;DHT22;5698;47.332;11.180;2024-01-11T03:21:04;-4.80;99.90
11284;DHT22;5698;47.332;11.180;2024-01-11T03:23:31;-4.80;99.90
11284;DHT22;5698;47.332;11.180;2024-01-11T03:25:58;-4.90;99.90
11284;DHT22;5698;47.332;11.180;2024-01-11T03:28:25;-4.90;99.90
11284;DHT22;5698;47.332;11.180;2024-01-11T03:30:53;-4.90;99.90
11284;DHT22;5698;47.332;11.180;2024-01-11T03:33:20;-4.90;99.90
11284;DHT22;5698;47.332;11.180;2024-01-11T03:35:47;-4.90;99.90
11284;DHT22;5698;47.332;11.180;2024-01-11T03:38:14;-5.00;99.90
11284;DHT22;5698;47.332;11.180;2024-01-11T03:40:41;-5.00;99.90
11284;DHT22;5698;47.332;11.180;2024-01-11T03:43:08;-5.00;99.90
11284;DHT22;5698;47.332;11.180;2024-01-11T03:45:35;-5.00;99.90
11284;DHT22;5698;47.332;11.180;2024-01-11T03:48:03;-5.00;99.90
11284;DHT22;5698;47.332;11.180;2024-01-11T03:50:31;-5.00;99.90
11284;DHT22;5698;47.332;11.180;2024-01-11T03:52:58;-5.00;99.90
11284;DHT22;5698;47.332;11.180;2024-01-11T03:55:24;-5.00;99.90
11284;DHT22;5698;47.332;11.180;2024-01-11T03:57:51;-5.00;99.90
11284;DHT22;5698;47.332;11.180;2024-01-11T04:00:19;-5.00;99.90
11284;DHT22;5698;47.332;11.180;2024-01-11T04:02:46;-4.90;99.90
11284;DHT22;5698;47.332;11.180;2024-01-11T04:05:14;-5.00;99.90
11284;DHT22;5698;47.332;11.180;2024-01-11T04:07:42;-4.90;99.90
11284;DHT22;5698;47.332;11.180;2024-01-11T04:10:09;-5.00;99.90
11284;DHT22;5698;47.332;11.180;2024-01-11T04:12:36;-5.00;99.90
11284;DHT22;5698;47.332;11.180;2024-01-11T04:15:04;-5.10;99.90
11284;DHT22;5698;47.332;11.180;2024-01-11T04:17:31;-5.10;99.90
11284;DHT22;5698;47.332;11.180;2024-01-11T04:19:58;-5.10;99.90
11284;DHT22;5698;47.332;11.180;2024-01-11T04:22:28;-5.20;99.90
11284;DHT22;5698;47.332;11.180;2024-01-11T04:24:55;-5.20;99.90
11284;DHT22;5698;47.332;11.180;2024-01-11T04:27:22;-5.20;99.90
11284;DHT22;5698;47.332;11.180;2024-01-11T04:29:48;-5.20;99.90
11284;DHT22;5698;47.332;11.180;2024-01-11T04:32:14;-5.20;99.90
11284;DHT22;5698;47.332;11.180;2024-01-11T04:34:41;-5.20;99.90
11284;DHT22;5698;47.332;11.180;2024-01-11T04:37:08;-5.20;99.90
11284;DHT22;5698;47.332;11.180;2024-01-11T04:39:36;-5.20;99.90
11284;DHT22;5698;47.332;11.180;2024-01-11T04:42:03;-5.20;99.90
11284;DHT22;5698;47.332;11.180;2024-01-11T04:44:30;-5.20;99.90
11284;DHT22;5698;47.332;11.180;2024-01-11T04:46:57;-5.30;99.90
11284;DHT22;5698;47.332;11.180;2024-01-11T04:49:24;-5.30;99.90
11284;DHT22;5698;47.332;11.180;2024-01-11T04:51:51;-5.30;99.90
11284;DHT22;5698;47.332;11.180;2024-01-11T04:54:18;-5.30;99.90
11284;DHT22;5698;47.332;11.180;2024-01-11T04:56:46;-5.20;99.90
11284;DHT22;5698;47.332;11.180;2024-01-11T04:59:13;-5.30;99.90
11284;DHT22;5698;47.332;11.180;2024-01-11T05:01:40;-5.30;99.90
11284;DHT22;5698;47.332;11.180;2024-01-11T05:04:08;-5.30;99.90
11284;DHT22;5698;47.332;11.180;2024-01-11T05:06:35;-5.30;99.90
11284;DHT22;5698;47.332;11.180;2024-01-11T05:09:02;-5.30;99.90
11284;DHT22;5698;47.332;11.180;2024-01-11T05:11:30;-5.30;99.90
11284;DHT22;5698;47.332;11.180;2024-01-11T05:13:58;-5.40;99.90
11284;DHT22;5698;47.332;11.180;2024-01-11T05:16:26;-5.40;99.90
11284;DHT22;5698;47.332;11.180;2024-01-11T05:18:55;-5.40;99.90
11284;DHT22;5698;47.332;11.180;2024-01-11T05:21:23;-5.40;99.90
11284;DHT22;5698;47.332;11.180;2024-01-11T05:23:51;-5.40;99.90
11284;DHT22;5698;47.332;11.180;2024-01-11T05:26:18;-5.40;99.90
11284;DHT22;5698;47.332;11.180;2024-01-11T05:28:45;-5.40;99.90
11284;DHT22;5698;47.332;11.180;2024-01-11T05:31:15;-5.40;99.90
11284;DHT22;5698;47.332;11.180;2024-01-11T05:33:42;-5.50;99.90
11284;DHT22;5698;47.332;11.180;2024-01-11T05:36:09;-5.50;99.90
11284;DHT22;5698;47.332;11.180;2024-01-11T05:38:38;-5.50;99.90
11284;DHT22;5698;47.332;11.180;2024-01-11T05:41:06;-5.50;99.90
11284;DHT22;5698;47.332;11.180;2024-01-11T05:43:33;-5.50;99.90
11284;DHT22;5698;47.332;11.180;2024-01-11T05:46:00;-5.50;99.90
11284;DHT22;5698;47.332;11.180;2024-01-11T05:48:29;-5.50;99.90
11284;DHT22;5698;47.332;11.180;2024-01-11T05:50:55;-5.50;99.90
11284;DHT22;5698;47.332;11.180;2024-01-11T05:53:22;-5.50;99.90
11284;DHT22;5698;47.332;11.180;2024-01-11T05:55:50;-5.50;99.90
11284;DHT22;5698;47.332;11.180;2024-01-11T05:58:17;-5.50;99.90
11284;DHT22;5698;47.332;11.180;2024-01-11T06:00:45;-5.50;99.90
11284;DHT22;5698;47.332;11.180;2024-01-11T06:03:12;-5.50;99.90
11284;DHT22;5698;47.332;11.180;2024-01-11T06:05:40;-5.50;99.90
11284;DHT22;5698;47.332;11.180;2024-01-11T06:08:07;-5.40;99.90
11284;DHT22;5698;47.332;11.180;2024-01-11T06:10:34;-5.40;99.90
11284;DHT22;5698;47.332;11.180;2024-01-11T06:13:01;-5.40;99.90
11284;DHT22;5698;47.332;11.180;2024-01-11T06:15:28;-5.60;99.90
11284;DHT22;5698;47.332;11.180;2024-01-11T06:17:55;-5.60;99.90
11284;DHT22;5698;47.332;11.180;2024-01-11T06:20:22;-5.50;99.90
11284;DHT22;5698;47.332;11.180;2024-01-11T06:22:50;-5.50;99.90
11284;DHT22;5698;47.332;11.180;2024-01-11T06:25:17;-5.50;99.90
11284;DHT22;5698;47.332;11.180;2024-01-11T06:27:46;-5.30;99.90
11284;DHT22;5698;47.332;11.180;2024-01-11T06:30:13;-5.50;99.90
11284;DHT22;5698;47.332;11.180;2024-01-11T06:32:40;-5.40;99.90
11284;DHT22;5698;47.332;11.180;2024-01-11T06:35:08;-5.40;99.90
11284;DHT22;5698;47.332;11.180;2024-01-11T06:37:35;-5.40;99.90
11284;DHT22;5698;47.332;11.180;2024-01-11T06:40:04;-5.40;99.90
11284;DHT22;5698;47.332;11.180;2024-01-11T06:42:33;-5.40;99.90
11284;DHT22;5698;47.332;11.180;2024-01-11T06:45:00;-5.40;99.90
11284;DHT22;5698;47.332;11.180;2024-01-11T06:47:29;-5.40;99.90
11284;DHT22;5698;47.332;11.180;2024-01-11T06:49:56;-5.50;99.90
11284;DHT22;5698;47.332;11.180;2024-01-11T06:52:22;-5.50;99.90
11284;DHT22;5698;47.332;11.180;2024-01-11T06:54:49;-5.50;99.90
11284;DHT22;5698;47.332;11.180;2024-01-11T06:57:18;-5.50;99.90
11284;DHT22;5698;47.332;11.180;2024-01-11T06:59:44;-5.50;99.90
11284;DHT22;5698;47.332;11.180;2024-01-11T07:02:12;-5.60;99.90
11284;DHT22;5698;47.332;11.180;2024-01-11T07:04:44;-5.60;99.90
11284;DHT22;5698;47.332;11.180;2024-01-11T07:07:11;-5.60;99.90
11284;DHT22;5698;47.332;11.180;2024-01-11T07:09:38;-5.60;99.90
11284;DHT22;5698;47.332;11.180;2024-01-11T07:12:06;-5.50;99.90
11284;DHT22;5698;47.332;11.180;2024-01-11T07:14:34;-5.50;99.90
11284;DHT22;5698;47.332;11.180;2024-01-11T07:17:02;-5.50;99.90
11284;DHT22;5698;47.332;11.180;2024-01-11T07:19:29;-5.50;99.90
11284;DHT22;5698;47.332;11.180;2024-01-11T07:21:56;-5.50;99.90
11284;DHT22;5698;47.332;11.180;2024-01-11T07:24:23;-5.50;99.90
11284;DHT22;5698;47.332;11.180;2024-01-11T07:26:50;-5.40;99.90
11284;DHT22;5698;47.332;11.180;2024-01-11T07:29:17;-5.40;99.90
11284;DHT22;5698;47.332;11.180;2024-01-11T07:31:46;-5.30;99.90
11284;DHT22;5698;47.332;11.180;2024-01-11T07:34:12;-5.30;99.90
11284;DHT22;5698;47.332;11.180;2024-01-11T07:36:39;-5.30;99.90
11284;DHT22;5698;47.332;11.180;2024-01-11T07:39:06;-5.30;99.90
11284;DHT22;5698;47.332;11.180;2024-01-11T07:41:33;-5.30;99.90
11284;DHT22;5698;47.332;11.180;2024-01-11T07:44:00;-5.30;99.90
11284;DHT22;5698;47.332;11.180;2024-01-11T07:46:27;-5.30;99.90
11284;DHT22;5698;47.332;11.180;2024-01-11T07:48:55;-5.30;99.90
11284;DHT22;5698;47.332;11.180;2024-01-11T07:51:24;-5.20;99.90
11284;DHT22;5698;47.332;11.180;2024-01-11T07:53:52;-5.20;99.90
11284;DHT22;5698;47.332;11.180;2024-01-11T07:56:19;-5.30;99.90
11284;DHT22;5698;47.332;11.180;2024-01-11T07:58:46;-5.30;99.90
11284;DHT22;5698;47.332;11.180;2024-01-11T08:01:13;-5.30;99.90
11284;DHT22;5698;47.332;11.180;2024-01-11T08:03:40;-5.20;99.90
11284;DHT22;5698;47.332;11.180;2024-01-11T08:06:08;-5.20;99.90
11284;DHT22;5698;47.332;11.180;2024-01-11T08:08:35;-5.10;99.90
11284;DHT22;5698;47.332;11.180;2024-01-11T08:11:04;-5.10;99.90
11284;DHT22;5698;47.332;11.180;2024-01-11T08:13:31;-5.00;99.90
11284;DHT22;5698;47.332;11.180;2024-01-11T08:16:00;-4.90;99.90
11284;DHT22;5698;47.332;11.180;2024-01-11T08:18:29;-4.80;99.90
11284;DHT22;5698;47.332;11.180;2024-01-11T08:20:56;-4.80;99.90
11284;DHT22;5698;47.332;11.180;2024-01-11T08:23:24;-4.70;99.90
11284;DHT22;5698;47.332;11.180;2024-01-11T08:25:52;-4.60;99.90
11284;DHT22;5698;47.332;11.180;2024-01-11T08:28:19;-4.50;99.90
11284;DHT22;5698;47.332;11.180;2024-01-11T08:30:47;-4.40;99.90
11284;DHT22;5698;47.332;11.180;2024-01-11T08:33:14;-4.30;99.90
11284;DHT22;5698;47.332;11.180;2024-01-11T08:35:40;-4.10;99.90
11284;DHT22;5698;47.332;11.180;2024-01-11T08:38:08;-4.10;99.90
11284;DHT22;5698;47.332;11.180;2024-01-11T08:40:36;-4.00;99.90
11284;DHT22;5698;47.332;11.180;2024-01-11T08:43:04;-3.90;99.90
11284;DHT22;5698;47.332;11.180;2024-01-11T08:45:32;-3.80;99.90
11284;DHT22;5698;47.332;11.180;2024-01-11T08:47:58;-3.70;99.90
11284;DHT22;5698;47.332;11.180;2024-01-11T08:50:26;-3.60;99.90
11284;DHT22;5698;47.332;11.180;2024-01-11T08:52:53;-3.50;99.90
11284;DHT22;5698;47.332;11.180;2024-01-11T08:55:20;-3.50;99.90
11284;DHT22;5698;47.332;11.180;2024-01-11T08:57:49;-3.40;99.90
11284;DHT22;5698;47.332;11.180;2024-01-11T09:00:16;-3.30;99.90
11284;DHT22;5698;47.332;11.180;2024-01-11T09:02:43;-3.10;99.90
11284;DHT22;5698;47.332;11.180;2024-01-11T09:05:11;-3.00;99.90
11284;DHT22;5698;47.332;11.180;2024-01-11T09:07:38;-2.90;99.90
11284;DHT22;5698;47.332;11.180;2024-01-11T09:10:06;-2.80;99.90
11284;DHT22;5698;47.332;11.180;2024-01-11T09:12:34;-2.70;99.90
11284;DHT22;5698;47.332;11.180;2024-01-11T09:15:03;-2.70;99.90
11284;DHT22;5698;47.332;11.180;2024-01-11T09:17:30;-2.60;99.90
11284;DHT22;5698;47.332;11.180;2024-01-11T09:19:57;-2.40;99.90
11284;DHT22;5698;47.332;11.180;2024-01-11T09:22:24;-2.20;99.90
11284;DHT22;5698;47.332;11.180;2024-01-11T09:24:51;-2.10;99.90
11284;DHT22;5698;47.332;11.180;2024-01-11T09:27:18;-1.90;99.90
11284;DHT22;5698;47.332;11.180;2024-01-11T09:29:45;-1.80;99.90
11284;DHT22;5698;47.332;11.180;2024-01-11T09:32:14;-1.70;99.90
11284;DHT22;5698;47.332;11.180;2024-01-11T09:34:41;-1.60;99.90
11284;DHT22;5698;47.332;11.180;2024-01-11T09:37:10;-1.40;99.90
11284;DHT22;5698;47.332;11.180;2024-01-11T09:39:37;-1.30;99.90
11284;DHT22;5698;47.332;11.180;2024-01-11T09:42:07;-1.10;99.90
11284;DHT22;5698;47.332;11.180;2024-01-11T09:44:36;-0.90;99.90
11284;DHT22;5698;47.332;11.180;2024-01-11T09:47:04;-1.10;99.90
11284;DHT22;5698;47.332;11.180;2024-01-11T09:49:36;-1.00;99.90
11284;DHT22;5698;47.332;11.180;2024-01-11T09:52:05;-1.00;99.90
11284;DHT22;5698;47.332;11.180;2024-01-11T09:54:34;-0.90;99.90
11284;DHT22;5698;47.332;11.180;2024-01-11T09:57:02;-0.90;99.90
11284;DHT22;5698;47.332;11.180;2024-01-11T09:59:30;-0.80;99.90
11284;DHT22;5698;47.332;11.180;2024-01-11T10:01:58;-0.70;99.90
11284;DHT22;5698;47.332;11.180;2024-01-11T10:04:25;-0.60;99.90
11284;DHT22;5698;47.332;11.180;2024-01-11T10:06:55;-0.60;99.90
11284;DHT22;5698;47.332;11.180;2024-01-11T10:09:23;-0.40;99.90
11284;DHT22;5698;47.332;11.180;2024-01-11T10:11:50;-0.20;99.90
11284;DHT22;5698;47.332;11.180;2024-01-11T10:14:18;-0.10;99.90
11284;DHT22;5698;47.332;11.180;2024-01-11T10:16:47;0.00;99.90
11284;DHT22;5698;47.332;11.180;2024-01-11T10:19:14;0.00;99.90
11284;DHT22;5698;47.332;11.180;2024-01-11T10:21:42;0.00;99.90
11284;DHT22;5698;47.332;11.180;2024-01-11T10:24:12;0.10;99.90
11284;DHT22;5698;47.332;11.180;2024-01-11T10:26:43;0.10;99.90
11284;DHT22;5698;47.332;11.180;2024-01-11T10:29:11;0.10;99.90
11284;DHT22;5698;47.332;11.180;2024-01-11T10:31:38;0.20;99.90
11284;DHT22;5698;47.332;11.180;2024-01-11T10:34:05;0.30;99.90
11284;DHT22;5698;47.332;11.180;2024-01-11T10:36:33;0.50;99.90
11284;DHT22;5698;47.332;11.180;2024-01-11T10:39:02;0.50;99.90
11284;DHT22;5698;47.332;11.180;2024-01-11T10:41:38;0.60;99.90
11284;DHT22;5698;47.332;11.180;2024-01-11T10:44:08;0.90;99.90
11284;DHT22;5698;47.332;11.180;2024-01-11T10:46:37;1.10;99.90
11284;DHT22;5698;47.332;11.180;2024-01-11T10:49:06;1.20;99.90
11284;DHT22;5698;47.332;11.180;2024-01-11T10:51:34;1.30;99.90
11284;DHT22;5698;47.332;11.180;2024-01-11T10:54:01;1.30;99.90
11284;DHT22;5698;47.332;11.180;2024-01-11T10:56:30;1.40;99.90
11284;DHT22;5698;47.332;11.180;2024-01-11T10:59:00;1.50;99.90
11284;DHT22;5698;47.332;11.180;2024-01-11T11:01:28;1.50;99.90
11284;DHT22;5698;47.332;11.180;2024-01-11T11:03:56;1.70;99.90
11284;DHT22;5698;47.332;11.180;2024-01-11T11:06:23;1.90;99.90
11284;DHT22;5698;47.332;11.180;2024-01-11T11:08:52;2.10;99.90
11284;DHT22;5698;47.332;11.180;2024-01-11T11:11:20;2.30;99.90
11284;DHT22;5698;47.332;11.180;2024-01-11T11:13:48;2.50;99.90
11284;DHT22;5698;47.332;11.180;2024-01-11T11:16:17;2.70;99.90
11284;DHT22;5698;47.332;11.180;2024-01-11T11:18:45;2.80;99.90
11284;DHT22;5698;47.332;11.180;2024-01-11T11:21:12;2.90;99.90
11284;DHT22;5698;47.332;11.180;2024-01-11T11:23:39;2.90;99.90
11284;DHT22;5698;47.332;11.180;2024-01-11T11:26:06;3.00;99.90
11284;DHT22;5698;47.332;11.180;2024-01-11T11:28:34;3.10;99.90
11284;DHT22;5698;47.332;11.180;2024-01-11T11:31:02;3.20;99.90
11284;DHT22;5698;47.332;11.180;2024-01-11T11:33:31;3.20;99.90
11284;DHT22;5698;47.332;11.180;2024-01-11T11:35:58;3.20;99.90
11284;DHT22;5698;47.332;11.180;2024-01-11T11:38:27;3.20;99.90
11284;DHT22;5698;47.332;11.180;2024-01-11T11:40:56;3.10;99.90
11284;DHT22;5698;47.332;11.180;2024-01-11T11:43:24;3.10;99.90
11284;DHT22;5698;47.332;11.180;2024-01-11T11:45:52;3.10;99.90
11284;DHT22;5698;47.332;11.180;2024-01-11T11:48:49;3.10;99.90
11284;DHT22;5698;47.332;11.180;2024-01-11T11:51:18;3.20;99.90
11284;DHT22;5698;47.332;11.180;2024-01-11T11:53:46;3.30;99.90
11284;DHT22;5698;47.332;11.180;2024-01-11T11:56:14;3.30;99.90
11284;DHT22;5698;47.332;11.180;2024-01-11T11:58:43;3.40;99.90
11284;DHT22;5698;47.332;11.180;2024-01-11T12:01:11;3.50;99.90
11284;DHT22;5698;47.332;11.180;2024-01-11T12:03:38;3.50;99.90
11284;DHT22;5698;47.332;11.180;2024-01-11T12:06:08;3.60;99.90
11284;DHT22;5698;47.332;11.180;2024-01-11T12:08:36;3.60;99.90
11284;DHT22;5698;47.332;11.180;2024-01-11T12:11:04;3.60;99.90
11284;DHT22;5698;47.332;11.180;2024-01-11T12:13:32;3.50;99.90
11284;DHT22;5698;47.332;11.180;2024-01-11T12:15:59;3.50;99.90
11284;DHT22;5698;47.332;11.180;2024-01-11T12:18:26;3.40;99.90
11284;DHT22;5698;47.332;11.180;2024-01-11T12:20:53;3.30;99.90
11284;DHT22;5698;47.332;11.180;2024-01-11T12:23:22;3.30;99.90
11284;DHT22;5698;47.332;11.180;2024-01-11T12:25:49;3.20;99.90
11284;DHT22;5698;47.332;11.180;2024-01-11T12:28:16;3.20;99.90
11284;DHT22;5698;47.332;11.180;2024-01-11T12:30:45;3.20;99.90
11284;DHT22;5698;47.332;11.180;2024-01-11T12:33:12;3.20;99.90
11284;DHT22;5698;47.332;11.180;2024-01-11T12:35:39;3.10;99.90
11284;DHT22;5698;47.332;11.180;2024-01-11T12:38:06;2.90;99.90
11284;DHT22;5698;47.332;11.180;2024-01-11T12:40:36;2.80;99.90
11284;DHT22;5698;47.332;11.180;2024-01-11T12:43:04;2.70;99.90
11284;DHT22;5698;47.332;11.180;2024-01-11T12:45:32;2.60;99.90
11284;DHT22;5698;47.332;11.180;2024-01-11T12:47:59;2.50;99.90
11284;DHT22;5698;47.332;11.180;2024-01-11T12:50:26;2.50;99.90
11284;DHT22;5698;47.332;11.180;2024-01-11T12:53:09;2.40;99.90
11284;DHT22;5698;47.332;11.180;2024-01-11T12:55:40;2.30;99.90
11284;DHT22;5698;47.332;11.180;2024-01-11T12:58:08;2.20;99.90
11284;DHT22;5698;47.332;11.180;2024-01-11T13:00:35;2.10;99.90
11284;DHT22;5698;47.332;11.180;2024-01-11T13:03:03;2.00;99.90
11284;DHT22;5698;47.332;11.180;2024-01-11T13:05:30;1.90;99.90
11284;DHT22;5698;47.332;11.180;2024-01-11T13:08:01;1.80;99.90
11284;DHT22;5698;47.332;11.180;2024-01-11T13:10:29;1.70;99.90
11284;DHT22;5698;47.332;11.180;2024-01-11T13:12:59;1.70;99.90
11284;DHT22;5698;47.332;11.180;2024-01-11T13:15:27;1.60;99.90
11284;DHT22;5698;47.332;11.180;2024-01-11T13:17:55;1.50;99.90
11284;DHT22;5698;47.332;11.180;2024-01-11T13:20:22;1.40;99.90
11284;DHT22;5698;47.332;11.180;2024-01-11T13:22:53;1.30;99.90
11284;DHT22;5698;47.332;11.180;2024-01-11T13:25:20;1.30;99.90
11284;DHT22;5698;47.332;11.180;2024-01-11T13:27:47;1.20;99.90
11284;DHT22;5698;47.332;11.180;2024-01-11T13:30:16;1.10;99.90
11284;DHT22;5698;47.332;11.180;2024-01-11T13:32:43;1.00;99.90
11284;DHT22;5698;47.332;11.180;2024-01-11T13:35:09;0.90;99.90
11284;DHT22;5698;47.332;11.180;2024-01-11T13:37:36;0.80;99.90
11284;DHT22;5698;47.332;11.180;2024-01-11T13:40:05;0.80;99.90
11284;DHT22;5698;47.332;11.180;2024-01-11T13:42:32;0.80;99.90
11284;DHT22;5698;47.332;11.180;2024-01-11T13:44:59;0.80;99.90
11284;DHT22;5698;47.332;11.180;2024-01-11T13:47:27;0.70;99.90
11284;DHT22;5698;47.332;11.180;2024-01-11T13:49:54;0.70;99.90
11284;DHT22;5698;47.332;11.180;2024-01-11T13:52:21;0.70;99.90
11284;DHT22;5698;47.332;11.180;2024-01-11T13:54:48;0.60;99.90
11284;DHT22;5698;47.332;11.180;2024-01-11T13:57:15;0.60;99.90
11284;DHT22;5698;47.332;11.180;2024-01-11T13:59:42;0.50;99.90
11284;DHT22;5698;47.332;11.180;2024-01-11T14:02:09;0.50;99.90
11284;DHT22;5698;47.332;11.180;2024-01-11T14:04:37;0.50;99.90
11284;DHT22;5698;47.332;11.180;2024-01-11T14:07:05;0.50;99.90
11284;DHT22;5698;47.332;11.180;2024-01-11T14:09:32;0.40;99.90
11284;DHT22;5698;47.332;11.180;2024-01-11T14:11:59;0.40;99.90
11284;DHT22;5698;47.332;11.180;2024-01-11T14:14:26;0.30;99.90
11284;DHT22;5698;47.332;11.180;2024-01-11T14:16:52;0.30;99.90
11284;DHT22;5698;47.332;11.180;2024-01-11T14:19:20;0.20;99.90
11284;DHT22;5698;47.332;11.180;2024-01-11T14:21:48;0.30;99.90
11284;DHT22;5698;47.332;11.180;2024-01-11T14:24:16;0.20;99.90
11284;DHT22;5698;47.332;11.180;2024-01-11T14:26:44;0.10;99.90
11284;DHT22;5698;47.332;11.180;2024-01-11T14:29:10;0.10;99.90
11284;DHT22;5698;47.332;11.180;2024-01-11T14:31:37;0.10;99.90
11284;DHT22;5698;47.332;11.180;2024-01-11T14:34:04;0.00;99.90
11284;DHT22;5698;47.332;11.180;2024-01-11T14:36:31;-0.10;99.90
11284;DHT22;5698;47.332;11.180;2024-01-11T14:39:00;-0.20;99.90
11284;DHT22;5698;47.332;11.180;2024-01-11T14:41:29;-0.20;99.90
11284;DHT22;5698;47.332;11.180;2024-01-11T14:43:57;-0.30;99.90
11284;DHT22;5698;47.332;11.180;2024-01-11T14:46:25;-0.30;99.90
11284;DHT22;5698;47.332;11.180;2024-01-11T14:48:52;-0.30;99.90
11284;DHT22;5698;47.332;11.180;2024-01-11T14:51:19;-0.40;99.90
11284;DHT22;5698;47.332;11.180;2024-01-11T14:53:46;-0.40;99.90
11284;DHT22;5698;47.332;11.180;2024-01-11T14:56:15;-0.40;99.90
11284;DHT22;5698;47.332;11.180;2024-01-11T14:58:41;-0.40;99.90
11284;DHT22;5698;47.332;11.180;2024-01-11T15:01:08;-0.40;99.90
11284;DHT22;5698;47.332;11.180;2024-01-11T15:03:35;-0.40;99.90
11284;DHT22;5698;47.332;11.180;2024-01-11T15:06:02;-0.50;99.90
11284;DHT22;5698;47.332;11.180;2024-01-11T15:08:30;-0.60;99.90
11284;DHT22;5698;47.332;11.180;2024-01-11T15:10:57;-0.60;99.90
11284;DHT22;5698;47.332;11.180;2024-01-11T15:13:25;-0.70;99.90
11284;DHT22;5698;47.332;11.180;2024-01-11T15:15:54;-0.70;99.90
11284;DHT22;5698;47.332;11.180;2024-01-11T15:18:21;-0.70;99.90
11284;DHT22;5698;47.332;11.180;2024-01-11T15:20:48;-0.70;99.90
11284;DHT22;5698;47.332;11.180;2024-01-11T15:23:15;-0.80;99.90
11284;DHT22;5698;47.332;11.180;2024-01-11T15:25:42;-0.90;99.90
11284;DHT22;5698;47.332;11.180;2024-01-11T15:28:10;-1.00;99.90
11284;DHT22;5698;47.332;11.180;2024-01-11T15:30:39;-1.10;99.90
11284;DHT22;5698;47.332;11.180;2024-01-11T15:33:06;-1.10;99.90
11284;DHT22;5698;47.332;11.180;2024-01-11T15:35:32;-1.20;99.90
11284;DHT22;5698;47.332;11.180;2024-01-11T15:37:59;-1.30;99.90